Time;durP1;ratioP1;P1;durP2;ratioP2;P2;SDS_P1;SDS_P2;PMS_P1;PMS_P2;Temp;Humidity;BMP_temperature;BMP_pressure;BME280_temperature;BME280_humidity;BME280_pressure;Samples;Min_cycle;Max_cycle;Signal;HPM_P1;HPM_P2
2021/04/29 00:00:06;;;;;;;2.22;0.60;;;32.50;11.90;;;;;;5063171;28;20069;-63
2021/04/29 00:02:32;;;;;;;2.88;1.20;;;32.50;12.00;;;;;;5083517;28;20095;-62
2021/04/29 00:04:59;;;;;;;1.90;0.55;;;32.30;12.20;;;;;;5096617;28;20424;-63
2021/04/29 00:07:25;;;;;;;6.55;0.63;;;32.30;12.20;;;;;;5101990;28;20162;-63
2021/04/29 00:09:51;;;;;;;1.17;0.60;;;32.40;12.20;;;;;;5078124;28;20109;-64
2021/04/29 00:12:18;;;;;;;2.17;0.90;;;32.30;11.60;;;;;;5097842;28;20112;-63
2021/04/29 00:14:45;;;;;;;4.65;0.50;;;32.30;12.00;;;;;;5097598;28;20095;-63
2021/04/29 00:17:11;;;;;;;2.95;0.50;;;32.20;12.10;;;;;;5098865;28;20068;-62
2021/04/29 00:19:37;;;;;;;1.15;0.70;;;32.20;12.10;;;;;;5098765;28;20164;-63
2021/04/29 00:22:04;;;;;;;3.05;1.20;;;32.30;12.30;;;;;;5097434;28;20076;-64
2021/04/29 00:24:31;;;;;;;3.95;0.93;;;32.40;12.20;;;;;;5098862;28;20078;-62
2021/04/29 00:26:58;;;;;;;1.48;0.50;;;32.30;12.00;;;;;;5096821;28;20151;-64
2021/04/29 00:29:24;;;;;;;3.25;0.40;;;32.20;12.10;;;;;;5103778;28;20073;-63
2021/04/29 00:31:51;;;;;;;1.92;0.30;;;32.10;12.20;;;;;;5099324;28;20103;-64
2021/04/29 00:34:17;;;;;;;1.75;0.52;;;32.00;12.50;;;;;;5081572;28;20073;-61
2021/04/29 00:36:44;;;;;;;2.28;0.40;;;32.00;12.60;;;;;;5079771;28;20156;-63
2021/04/29 00:39:10;;;;;;;2.78;0.50;;;32.10;12.80;;;;;;5079076;28;20080;-62
2021/04/29 00:41:37;;;;;;;4.53;0.50;;;32.10;12.70;;;;;;5076641;28;20077;-62
2021/04/29 00:44:03;;;;;;;5.35;0.70;;;32.10;12.30;;;;;;5098948;28;21027;-63
2021/04/29 00:46:30;;;;;;;1.10;0.50;;;32.00;12.50;;;;;;5102304;28;20151;-63
2021/04/29 00:48:57;;;;;;;2.58;0.40;;;32.10;12.20;;;;;;5067205;28;20103;-63
2021/04/29 00:51:24;;;;;;;3.53;0.40;;;32.00;12.40;;;;;;5080918;28;20099;-63
2021/04/29 00:53:52;;;;;;;5.85;0.90;;;31.90;12.60;;;;;;5096653;28;20192;-62
2021/04/29 00:56:21;;;;;;;2.78;0.63;;;31.90;12.70;;;;;;5093895;28;20080;-62
2021/04/29 00:58:51;;;;;;;2.25;0.80;;;31.90;12.50;;;;;;5097224;28;20076;-64
2021/04/29 01:01:17;;;;;;;2.47;0.40;;;31.80;12.20;;;;;;5097097;28;20077;-62
2021/04/29 01:04:11;;;;;;;3.40;0.40;;;31.70;12.20;;;;;;5102193;28;20122;-61
2021/04/29 01:06:45;;;;;;;2.63;0.50;;;31.60;12.20;;;;;;5100965;28;20111;-62
2021/04/29 01:09:14;;;;;;;7.03;0.70;;;31.60;12.30;;;;;;5099776;28;20099;-62
2021/04/29 01:11:43;;;;;;;2.00;0.68;;;31.60;19.40;;;;;;5099363;28;20062;-65
2021/04/29 01:14:11;;;;;;;3.33;0.70;;;31.50;12.50;;;;;;5097839;28;20076;-63
2021/04/29 01:16:39;;;;;;;3.58;0.40;;;31.50;12.20;;;;;;5096108;28;20129;-63
2021/04/29 01:19:10;;;;;;;0.93;0.57;;;31.30;12.10;;;;;;5100279;28;20073;-59
2021/04/29 01:21:38;;;;;;;2.75;0.40;;;31.20;13.00;;;;;;5096340;28;20126;-61
2021/04/29 01:24:25;;;;;;;4.43;0.50;;;31.10;12.50;;;;;;5097969;28;20409;-60
2021/04/29 01:26:52;;;;;;;;;;;31.10;14.10;;;;;;5101905;28;20063;-64
2021/04/29 01:29:23;;;;;;;5.20;0.60;;;30.90;12.70;;;;;;5106846;28;20387;-62
2021/04/29 01:31:52;;;;;;;4.13;0.57;;;30.90;13.40;;;;;;5102858;28;20096;-63
2021/04/29 01:34:21;;;;;;;3.20;0.60;;;30.90;13.20;;;;;;5080859;28;20068;-62
2021/04/29 01:36:50;;;;;;;4.22;0.45;;;30.90;13.30;;;;;;5068707;28;20533;-63
2021/04/29 01:39:18;;;;;;;3.33;0.75;;;30.90;12.90;;;;;;5101569;28;20242;-65
2021/04/29 01:41:50;;;;;;;1.98;0.80;;;30.80;12.80;;;;;;5096186;28;20167;-63
2021/04/29 01:44:19;;;;;;;10.75;0.70;;;30.70;12.70;;;;;;5097671;28;20089;-62
2021/04/29 01:46:47;;;;;;;4.00;1.10;;;30.50;13.00;;;;;;5093310;28;20115;-63
2021/04/29 01:49:14;;;;;;;3.78;0.90;;;30.50;13.10;;;;;;5078157;28;20117;-63
2021/04/29 01:51:42;;;;;;;3.80;1.20;;;30.30;13.20;;;;;;5098938;28;20138;-62
2021/04/29 01:54:11;;;;;;;4.25;1.08;;;30.20;13.20;;;;;;5082482;28;20103;-63
2021/04/29 01:56:39;;;;;;;5.30;0.90;;;30.10;13.40;;;;;;5078935;28;20077;-63
2021/04/29 01:59:07;;;;;;;8.02;0.90;;;30.10;13.40;;;;;;5080740;28;20095;-63
2021/04/29 02:01:36;;;;;;;2.85;1.10;;;30.10;13.50;;;;;;5096202;28;20091;-62
2021/04/29 02:04:03;;;;;;;6.38;0.90;;;29.90;13.60;;;;;;5082346;28;20076;-63
2021/04/29 02:06:30;;;;;;;4.03;0.70;;;29.90;13.50;;;;;;5099473;28;20155;-63
2021/04/29 02:08:56;;;;;;;10.73;1.20;;;29.80;13.50;;;;;;5098835;28;20073;-62
2021/04/29 02:11:23;;;;;;;5.45;0.90;;;29.70;13.60;;;;;;5097076;28;20173;-64
2021/04/29 02:13:54;;;;;;;6.13;1.45;;;29.60;13.80;;;;;;5093411;28;20166;-63
2021/04/29 02:16:44;;;;;;;5.75;1.10;;;29.50;14.10;;;;;;5101945;28;20071;-64
2021/04/29 02:19:13;;;;;;;2.38;0.98;;;29.40;14.30;;;;;;5097667;28;20087;-64
2021/04/29 02:21:43;;;;;;;11.98;1.08;;;29.40;14.30;;;;;;5098838;28;20128;-67
2021/04/29 02:24:11;;;;;;;5.90;0.90;;;29.30;14.30;;;;;;5094403;28;20109;-63
2021/04/29 02:26:38;;;;;;;7.80;0.85;;;29.20;14.30;;;;;;5101545;28;20164;-63
2021/04/29 02:29:07;;;;;;;6.45;0.82;;;29.10;14.40;;;;;;5096677;28;20448;-62
2021/04/29 02:31:35;;;;;;;7.35;1.00;;;29.00;14.40;;;;;;5100248;28;20179;-63
2021/04/29 02:34:03;;;;;;;10.73;1.10;;;29.00;14.70;;;;;;5098607;28;20069;-61
2021/04/29 02:36:31;;;;;;;3.35;1.10;;;28.90;14.60;;;;;;5097499;28;20538;-62
2021/04/29 02:38:59;;;;;;;6.53;1.00;;;28.80;14.70;;;;;;5096939;28;20522;-62
2021/04/29 02:41:26;;;;;;;5.72;1.00;;;28.70;14.90;;;;;;5094921;28;20555;-62
2021/04/29 02:43:53;;;;;;;8.93;1.10;;;28.60;15.20;;;;;;5095539;28;20083;-63
2021/04/29 02:46:23;;;;;;;14.63;1.40;;;28.50;15.20;;;;;;5074714;28;20112;-62
2021/04/29 02:48:49;;;;;;;13.65;1.77;;;28.40;15.50;;;;;;5096310;28;20069;-61
2021/04/29 02:51:16;;;;;;;20.75;2.45;;;28.20;15.80;;;;;;5098973;28;20552;-61
2021/04/29 02:53:43;;;;;;;9.35;2.03;;;28.10;16.00;;;;;;5095573;28;20083;-61
2021/04/29 02:56:11;;;;;;;11.27;2.10;;;28.00;16.30;;;;;;5097860;28;20537;-61
2021/04/29 02:58:49;;;;;;;21.20;2.20;;;27.90;16.40;;;;;;5096140;28;20072;-60
2021/04/29 03:01:16;;;;;;;17.90;2.25;;;27.80;16.80;;;;;;5079550;28;20487;-59
2021/04/29 03:03:44;;;;;;;13.68;2.13;;;27.70;17.30;;;;;;5094847;28;20080;-62
2021/04/29 03:06:11;;;;;;;19.45;2.30;;;27.60;17.10;;;;;;5097729;28;20088;-62
2021/04/29 03:08:37;;;;;;;13.02;2.20;;;27.50;17.20;;;;;;5091760;28;20073;-60
2021/04/29 03:11:04;;;;;;;9.68;2.00;;;27.40;17.20;;;;;;5094599;28;20567;-63
2021/04/29 03:13:31;;;;;;;14.65;2.60;;;27.30;17.60;;;;;;5098117;28;20072;-63
2021/04/29 03:15:59;;;;;;;16.20;2.30;;;27.30;17.60;;;;;;5078504;28;20216;-62
2021/04/29 03:18:25;;;;;;;14.65;2.28;;;27.20;17.80;;;;;;5095752;28;20529;-63
2021/04/29 03:20:52;;;;;;;14.60;3.17;;;27.10;17.90;;;;;;5077234;28;20276;-61
2021/04/29 03:23:18;;;;;;;20.75;3.13;;;26.90;18.50;;;;;;5100143;28;20517;-63
2021/04/29 03:25:45;;;;;;;19.80;3.13;;;26.90;19.00;;;;;;5097589;28;20076;-63
2021/04/29 03:28:12;;;;;;;22.85;3.65;;;26.80;19.10;;;;;;5078690;28;20084;-61
2021/04/29 03:30:38;;;;;;;30.42;3.78;;;26.70;19.20;;;;;;5080146;28;20068;-60
2021/04/29 03:33:06;;;;;;;18.00;3.75;;;26.60;19.70;;;;;;5098619;28;20083;-61
2021/04/29 03:35:33;;;;;;;29.80;4.75;;;26.50;19.90;;;;;;5076883;28;20080;-63
2021/04/29 03:37:59;;;;;;;29.23;3.20;;;26.40;20.00;;;;;;5098102;28;20521;-62
2021/04/29 03:40:26;;;;;;;31.35;3.30;;;26.30;19.90;;;;;;5098205;28;20133;-62
2021/04/29 03:42:53;;;;;;;26.48;3.47;;;26.20;20.00;;;;;;5100039;28;20076;-62
2021/04/29 03:45:19;;;;;;;17.13;4.20;;;26.00;19.80;;;;;;5102373;28;20095;-62
2021/04/29 03:47:46;;;;;;;44.10;6.28;;;26.00;19.60;;;;;;5081860;28;20157;-58
2021/04/29 03:50:12;;;;;;;32.85;6.90;;;25.90;19.40;;;;;;5092565;28;20085;-59
2021/04/29 03:52:39;;;;;;;29.65;8.88;;;25.90;19.30;;;;;;5102859;28;20131;-61
2021/04/29 03:55:06;;;;;;;29.98;8.35;;;25.80;19.20;;;;;;5092813;28;20096;-60
2021/04/29 03:57:33;;;;;;;30.58;9.43;;;25.80;19.20;;;;;;5095696;28;20603;-61
2021/04/29 03:59:59;;;;;;;48.30;9.98;;;25.80;19.50;;;;;;5076773;28;20121;-61
2021/04/29 04:02:26;;;;;;;44.20;10.60;;;25.80;19.60;;;;;;5092562;28;20077;-60
2021/04/29 04:04:53;;;;;;;52.78;11.70;;;25.70;20.10;;;;;;5098096;28;20702;-60
2021/04/29 04:07:19;;;;;;;45.88;11.25;;;25.70;20.10;;;;;;5091763;28;20133;-62
2021/04/29 04:09:46;;;;;;;52.85;12.30;;;25.60;19.60;;;;;;5090734;28;20087;-61
2021/04/29 04:12:12;;;;;;;37.17;10.60;;;25.60;20.10;;;;;;5080996;28;20552;-61
2021/04/29 04:14:39;;;;;;;48.13;11.75;;;25.50;19.80;;;;;;5074038;28;20168;-59
2021/04/29 04:17:05;;;;;;;47.15;11.85;;;25.40;19.80;;;;;;5093718;28;20103;-59
2021/04/29 04:19:32;;;;;;;59.67;12.40;;;25.40;20.50;;;;;;5095799;28;20440;-59
2021/04/29 04:21:59;;;;;;;44.33;12.38;;;25.30;20.50;;;;;;5093450;28;20084;-57
2021/04/29 04:24:25;;;;;;;46.33;13.27;;;25.20;20.40;;;;;;5096622;28;20126;-61
2021/04/29 04:26:52;;;;;;;39.33;11.82;;;25.10;20.90;;;;;;5096680;28;20153;-62
2021/04/29 04:29:18;;;;;;;43.17;11.63;;;25.10;20.30;;;;;;5094970;28;20064;-61
2021/04/29 04:31:45;;;;;;;38.58;10.55;;;25.10;19.90;;;;;;5083372;28;20124;-61
2021/04/29 04:34:11;;;;;;;50.58;9.00;;;25.10;19.40;;;;;;5100692;28;20414;-61
2021/04/29 04:36:38;;;;;;;35.22;8.07;;;25.10;19.00;;;;;;5098891;28;20081;-61
2021/04/29 04:39:05;;;;;;;37.78;8.18;;;25.10;18.90;;;;;;5083587;28;20475;-62
2021/04/29 04:41:31;;;;;;;47.38;7.70;;;25.10;18.70;;;;;;5098217;28;20077;-61
2021/04/29 04:43:58;;;;;;;35.28;8.35;;;25.10;18.90;;;;;;5097169;28;20072;-62
2021/04/29 04:46:25;;;;;;;44.97;8.43;;;25.10;18.80;;;;;;5100150;28;20114;-62
2021/04/29 04:48:55;;;;;;;41.13;8.07;;;25.10;18.80;;;;;;5094744;28;20077;-62
2021/04/29 04:51:22;;;;;;;46.45;7.85;;;25.10;19.10;;;;;;5098028;28;20128;-61
2021/04/29 04:53:49;;;;;;;36.90;7.35;;;25.10;19.20;;;;;;5098417;28;20115;-63
2021/04/29 04:56:16;;;;;;;40.13;6.72;;;25.10;19.60;;;;;;5103114;28;20152;-63
2021/04/29 04:58:42;;;;;;;36.72;7.13;;;25.20;19.40;;;;;;5099032;28;20587;-63
2021/04/29 05:01:09;;;;;;;34.25;7.07;;;25.20;19.50;;;;;;5100810;28;20131;-60
2021/04/29 05:03:35;;;;;;;45.40;7.75;;;25.20;19.70;;;;;;5096425;28;20080;-63
2021/04/29 05:06:02;;;;;;;44.67;7.78;;;25.20;19.70;;;;;;5100026;28;20076;-62
2021/04/29 05:08:29;;;;;;;59.42;9.73;;;25.20;19.70;;;;;;5081699;28;20069;-60
2021/04/29 05:10:56;;;;;;;42.58;8.20;;;25.20;19.80;;;;;;5102100;28;20092;-63
2021/04/29 05:13:23;;;;;;;53.33;8.48;;;25.20;19.90;;;;;;5098119;28;20068;-63
2021/04/29 05:15:49;;;;;;;61.88;8.98;;;25.10;20.00;;;;;;5079121;28;20551;-63
2021/04/29 05:18:16;;;;;;;57.65;8.20;;;25.10;20.20;;;;;;5100159;28;20080;-62
2021/04/29 05:20:43;;;;;;;56.53;8.50;;;25.00;20.40;;;;;;5101064;28;20322;-60
2021/04/29 05:23:10;;;;;;;80.63;9.75;;;25.00;20.70;;;;;;5100557;28;20520;-62
2021/04/29 05:25:37;;;;;;;79.63;12.20;;;25.00;20.90;;;;;;5098911;28;20073;-62
2021/04/29 05:28:04;;;;;;;124.07;14.13;;;24.90;20.90;;;;;;5079719;28;20172;-62
2021/04/29 05:30:31;;;;;;;164.75;17.65;;;24.90;20.90;;;;;;5095166;28;20544;-62
2021/04/29 05:32:57;;;;;;;155.27;21.55;;;24.90;20.80;;;;;;5101103;28;20092;-63
2021/04/29 05:35:24;;;;;;;172.00;21.45;;;24.80;20.60;;;;;;5079487;28;20072;-62
2021/04/29 05:37:50;;;;;;;165.20;22.55;;;24.70;20.50;;;;;;5095933;28;20072;-62
2021/04/29 05:40:17;;;;;;;136.23;21.05;;;24.70;20.50;;;;;;5088828;28;20545;-63
2021/04/29 05:42:44;;;;;;;129.93;19.20;;;24.70;20.50;;;;;;5093692;28;20085;-63
2021/04/29 05:45:12;;;;;;;95.80;15.82;;;24.70;20.40;;;;;;5090744;28;20069;-62
2021/04/29 05:47:39;;;;;;;77.55;13.90;;;24.70;20.30;;;;;;5092881;28;20123;-62
2021/04/29 05:50:07;;;;;;;72.32;13.80;;;24.70;20.30;;;;;;5093227;28;20099;-62
2021/04/29 05:52:34;;;;;;;73.85;13.70;;;24.80;20.80;;;;;;5093109;28;20101;-61
2021/04/29 05:55:00;;;;;;;59.90;13.38;;;24.70;20.40;;;;;;5099995;28;20069;-62
2021/04/29 05:57:27;;;;;;;62.15;12.90;;;24.70;20.50;;;;;;5093394;28;20083;-61
2021/04/29 05:59:53;;;;;;;59.50;11.43;;;24.70;20.50;;;;;;5095534;28;20417;-62
2021/04/29 06:02:20;;;;;;;70.57;12.40;;;24.70;20.40;;;;;;5092212;28;20077;-61
2021/04/29 06:04:46;;;;;;;42.05;11.18;;;24.70;20.70;;;;;;5093892;28;20552;-61
2021/04/29 06:07:14;;;;;;;36.15;9.77;;;24.70;20.50;;;;;;5091521;28;20107;-60
2021/04/29 06:09:41;;;;;;;43.22;10.93;;;24.70;20.60;;;;;;5097424;28;20098;-61
2021/04/29 06:12:08;;;;;;;41.40;10.95;;;24.70;20.70;;;;;;5095584;28;20096;-61
2021/04/29 06:14:34;;;;;;;42.08;15.05;;;24.70;20.80;;;;;;5080239;28;20082;-60
2021/04/29 06:17:01;;;;;;;47.00;17.25;;;24.70;20.70;;;;;;5087791;28;20108;-60
2021/04/29 06:19:28;;;;;;;45.22;15.73;;;24.60;20.70;;;;;;5104172;28;20072;-61
2021/04/29 06:21:55;;;;;;;34.63;13.05;;;24.60;20.80;;;;;;5079543;28;20077;-59
2021/04/29 06:24:21;;;;;;;38.92;11.02;;;24.60;20.90;;;;;;5098943;28;20098;-62
2021/04/29 06:26:48;;;;;;;34.08;10.82;;;24.50;21.00;;;;;;5095970;28;20144;-61
2021/04/29 06:29:14;;;;;;;39.63;11.43;;;24.50;21.20;;;;;;5093962;28;20068;-60
2021/04/29 06:31:53;;;;;;;32.53;10.63;;;24.40;21.20;;;;;;5091309;28;20100;-61
2021/04/29 06:34:24;;;;;;;30.92;9.73;;;24.40;21.30;;;;;;5062768;28;20068;-60
2021/04/29 06:36:54;;;;;;;33.28;9.88;;;24.30;21.40;;;;;;5090402;28;20076;-64
2021/04/29 06:39:28;;;;;;;25.77;9.15;;;24.30;21.60;;;;;;5090347;28;20080;-63
2021/04/29 06:41:54;;;;;;;21.92;7.22;;;24.20;21.60;;;;;;5095317;28;20087;-60
2021/04/29 06:44:21;;;;;;;21.77;5.55;;;24.20;21.50;;;;;;5091778;28;20136;-63
2021/04/29 06:46:47;;;;;;;13.70;4.78;;;24.10;21.50;;;;;;5090073;28;20580;-61
2021/04/29 06:49:14;;;;;;;16.45;3.90;;;24.10;21.60;;;;;;5091572;28;20083;-61
2021/04/29 06:51:41;;;;;;;13.98;4.07;;;24.00;21.60;;;;;;5075253;28;20120;-61
2021/04/29 06:54:19;;;;;;;14.13;4.32;;;24.00;21.90;;;;;;5092653;28;20432;-61
2021/04/29 06:56:46;;;;;;;14.77;3.85;;;23.90;22.10;;;;;;5076403;28;20149;-60
2021/04/29 06:59:12;;;;;;;11.80;2.72;;;23.80;22.40;;;;;;5090618;28;20159;-60
2021/04/29 07:01:39;;;;;;;16.17;3.13;;;23.80;22.30;;;;;;5095376;28;20088;-63
2021/04/29 07:04:06;;;;;;;16.83;2.75;;;23.80;22.40;;;;;;5096451;28;20072;-59
2021/04/29 07:06:33;;;;;;;13.95;2.30;;;23.80;22.50;;;;;;5095165;28;20097;-64
2021/04/29 07:09:02;;;;;;;15.45;2.97;;;23.80;22.50;;;;;;5090320;28;20572;-61
2021/04/29 07:11:30;;;;;;;14.65;2.35;;;23.70;22.50;;;;;;5093832;28;20110;-61
2021/04/29 07:13:57;;;;;;;12.65;2.10;;;23.70;22.60;;;;;;5094056;28;20093;-61
2021/04/29 07:16:27;;;;;;;16.13;1.98;;;23.70;22.70;;;;;;5084093;28;20491;-62
2021/04/29 07:18:54;;;;;;;12.63;2.47;;;23.70;22.80;;;;;;5078939;28;20072;-59
2021/04/29 07:21:21;;;;;;;8.52;2.15;;;23.60;22.80;;;;;;5094113;28;20546;-61
2021/04/29 07:23:48;;;;;;;14.68;2.25;;;23.60;22.80;;;;;;5098769;28;20073;-63
2021/04/29 07:26:15;;;;;;;13.43;2.03;;;23.60;22.90;;;;;;5097808;28;20069;-61
2021/04/29 07:28:45;;;;;;;12.85;2.00;;;23.60;22.90;;;;;;5094125;28;20432;-61
2021/04/29 07:31:13;;;;;;;9.73;1.88;;;23.60;23.00;;;;;;5095887;28;20097;-62
2021/04/29 07:33:45;;;;;;;14.48;2.10;;;23.60;23.00;;;;;;5098758;28;20538;-62
2021/04/29 07:36:12;;;;;;;10.57;2.10;;;23.60;22.90;;;;;;5080682;28;20076;-61
2021/04/29 07:38:39;;;;;;;10.95;2.08;;;23.50;22.90;;;;;;5080271;28;20099;-60
2021/04/29 07:41:06;;;;;;;15.13;2.13;;;23.50;22.90;;;;;;5093851;28;20073;-60
2021/04/29 07:43:32;;;;;;;10.35;1.83;;;23.50;22.80;;;;;;5075227;28;20073;-61
2021/04/29 07:45:59;;;;;;;12.15;1.90;;;23.60;22.80;;;;;;5097691;28;20433;-61
2021/04/29 07:48:26;;;;;;;9.55;1.98;;;23.60;22.70;;;;;;5076950;28;20161;-61
2021/04/29 07:50:52;;;;;;;10.45;1.75;;;23.60;22.70;;;;;;5094921;28;20069;-61
2021/04/29 07:53:21;;;;;;;12.02;1.85;;;23.60;22.70;;;;;;5096523;28;20217;-61
2021/04/29 07:55:47;;;;;;;11.52;1.38;;;23.60;22.60;;;;;;5094104;28;20558;-59
2021/04/29 07:58:14;;;;;;;6.47;1.55;;;23.60;22.40;;;;;;5094826;28;20073;-59
2021/04/29 08:00:40;;;;;;;10.50;1.88;;;23.60;22.40;;;;;;5077235;28;20098;-61
2021/04/29 08:03:07;;;;;;;8.18;1.83;;;23.60;22.20;;;;;;5074995;28;20083;-61
2021/04/29 08:05:35;;;;;;;5.43;1.27;;;23.60;22.20;;;;;;5092256;28;20077;-60
2021/04/29 08:08:02;;;;;;;4.90;1.27;;;23.70;22.10;;;;;;5076667;28;20080;-60
2021/04/29 08:10:28;;;;;;;10.98;2.45;;;23.70;22.00;;;;;;5093869;28;20061;-60
2021/04/29 08:12:55;;;;;;;8.23;1.77;;;23.70;21.90;;;;;;5095356;28;20161;-60
2021/04/29 08:15:21;;;;;;;11.48;2.10;;;23.70;21.90;;;;;;5095161;28;20095;-58
2021/04/29 08:17:48;;;;;;;6.32;1.70;;;23.70;22.30;;;;;;5098903;28;20108;-60
2021/04/29 08:20:15;;;;;;;11.25;1.63;;;23.70;21.80;;;;;;5090471;28;20080;-60
2021/04/29 08:22:41;;;;;;;5.43;1.13;;;23.70;21.80;;;;;;5097268;28;20084;-61
2021/04/29 08:25:08;;;;;;;8.05;1.30;;;23.80;21.70;;;;;;5088381;28;20079;-61
2021/04/29 08:27:35;;;;;;;4.88;1.30;;;23.70;21.70;;;;;;5094317;28;20088;-61
2021/04/29 08:30:01;;;;;;;5.60;1.20;;;23.70;21.70;;;;;;5098232;28;20155;-60
2021/04/29 08:32:28;;;;;;;8.57;1.70;;;23.70;21.70;;;;;;5095085;28;20503;-60
2021/04/29 08:34:54;;;;;;;5.18;1.00;;;23.70;21.60;;;;;;5091276;28;20083;-59
2021/04/29 08:37:21;;;;;;;7.18;1.27;;;23.80;21.50;;;;;;5086814;28;20103;-59
2021/04/29 08:39:48;;;;;;;13.10;1.48;;;23.80;21.40;;;;;;5089836;28;20151;-59
2021/04/29 08:42:15;;;;;;;8.95;1.20;;;23.80;21.40;;;;;;5095222;28;21439;-55
2021/04/29 08:44:43;;;;;;;3.33;1.05;;;23.80;21.40;;;;;;5089328;28;20072;-59
2021/04/29 08:47:10;;;;;;;6.65;0.98;;;23.80;21.40;;;;;;5093953;28;20173;-60
2021/04/29 08:49:42;;;;;;;3.78;1.20;;;23.80;21.50;;;;;;5092656;28;20079;-60
2021/04/29 08:52:09;;;;;;;4.22;1.00;;;23.70;21.40;;;;;;5059923;28;20101;-61
2021/04/29 08:54:38;;;;;;;3.83;0.95;;;23.70;21.40;;;;;;5095405;28;20080;-61
2021/04/29 08:57:06;;;;;;;5.45;0.95;;;23.70;21.40;;;;;;5091188;28;20068;-60
2021/04/29 08:59:33;;;;;;;10.38;1.00;;;23.60;21.30;;;;;;5095558;28;20081;-60
2021/04/29 09:01:59;;;;;;;4.97;1.10;;;23.60;21.20;;;;;;5090754;28;20084;-60
2021/04/29 09:04:27;;;;;;;3.83;1.00;;;23.60;21.10;;;;;;5090229;28;20076;-58
2021/04/29 09:06:55;;;;;;;7.10;1.00;;;23.60;21.00;;;;;;5090865;28;20105;-60
2021/04/29 09:09:22;;;;;;;6.18;0.65;;;23.60;21.10;;;;;;5073417;28;20133;-59
2021/04/29 09:11:53;;;;;;;3.72;1.00;;;23.60;20.70;;;;;;5091244;28;20101;-60
2021/04/29 09:14:32;;;;;;;9.70;1.30;;;23.60;20.50;;;;;;5090353;28;20121;-60
2021/04/29 09:16:59;;;;;;;4.88;0.90;;;23.70;20.40;;;;;;5097034;28;20149;-60
2021/04/29 09:19:28;;;;;;;7.78;1.15;;;23.60;20.40;;;;;;5093179;28;20137;-61
2021/04/29 09:21:57;;;;;;;7.07;1.00;;;23.60;20.40;;;;;;5090637;28;20081;-60
2021/04/29 09:24:40;;;;;;;3.75;0.80;;;23.60;20.10;;;;;;5089061;28;20565;-59
2021/04/29 09:27:21;;;;;;;3.88;0.90;;;23.60;20.10;;;;;;5089476;28;20168;-59
2021/04/29 09:30:02;;;;;;;5.90;0.90;;;23.60;20.20;;;;;;5092435;28;20549;-58
2021/04/29 09:32:34;;;;;;;11.52;1.05;;;23.50;20.70;;;;;;5091683;28;20104;-60
2021/04/29 09:35:03;;;;;;;9.70;2.38;;;23.40;20.20;;;;;;5090186;28;20164;-59
2021/04/29 09:37:32;;;;;;;4.50;1.00;;;23.40;20.20;;;;;;5092474;28;20077;-58
2021/04/29 09:40:18;;;;;;;6.05;0.90;;;23.40;20.30;;;;;;5092003;28;20077;-60
2021/04/29 09:42:46;;;;;;;6.28;1.00;;;23.40;20.40;;;;;;5091993;28;20079;-60
2021/04/29 09:45:28;;;;;;;2.45;0.80;;;23.30;20.40;;;;;;5092052;28;20163;-59
2021/04/29 09:48:03;;;;;;;5.63;1.00;;;23.30;20.40;;;;;;5090187;28;20112;-60
2021/04/29 09:50:38;;;;;;;6.22;1.02;;;23.20;20.40;;;;;;5088685;28;20073;-58
2021/04/29 09:53:11;;;;;;;5.63;0.75;;;23.20;20.50;;;;;;5089407;28;20101;-60
2021/04/29 09:55:40;;;;;;;3.22;1.00;;;23.10;20.50;;;;;;5089681;28;20492;-60
2021/04/29 09:58:18;;;;;;;4.90;0.80;;;23.10;20.60;;;;;;5090565;28;20069;-61
2021/04/29 10:00:49;;;;;;;8.10;0.90;;;23.10;20.50;;;;;;5092475;28;20068;-60
2021/04/29 10:03:18;;;;;;;10.38;1.10;;;23.00;20.60;;;;;;5091003;28;20068;-60
2021/04/29 10:05:50;;;;;;;5.35;1.25;;;22.90;20.60;;;;;;5089434;28;20499;-60
2021/04/29 10:08:21;;;;;;;4.82;0.90;;;22.90;20.60;;;;;;5090635;28;20077;-60
2021/04/29 10:10:48;;;;;;;2.97;0.90;;;22.90;20.50;;;;;;5094676;28;20076;-61
2021/04/29 10:13:18;;;;;;;5.22;0.95;;;22.80;20.60;;;;;;5092072;28;20077;-58
2021/04/29 10:15:45;;;;;;;5.28;1.00;;;22.70;20.70;;;;;;5094373;28;20517;-58
2021/04/29 10:18:14;;;;;;;3.13;0.93;;;22.70;21.10;;;;;;5094772;28;20076;-59
2021/04/29 10:20:46;;;;;;;5.05;1.05;;;22.60;21.70;;;;;;5092121;28;20069;-59
2021/04/29 10:23:20;;;;;;;6.22;1.10;;;22.50;22.30;;;;;;5089756;28;20072;-59
2021/04/29 10:25:58;;;;;;;7.47;0.82;;;22.40;22.60;;;;;;5090130;28;20085;-56
2021/04/29 10:28:46;;;;;;;4.60;0.98;;;22.30;22.90;;;;;;5090780;28;20107;-59
2021/04/29 10:31:15;;;;;;;;;;;22.20;23.10;;;;;;5071398;28;20100;-58
2021/04/29 10:34:01;;;;;;;8.75;1.20;;;22.20;23.20;;;;;;5090597;28;20039;-61
2021/04/29 10:36:47;;;;;;;7.38;1.08;;;22.10;23.30;;;;;;5093164;28;20125;-59
2021/04/29 10:39:18;;;;;;;3.42;1.08;;;22.00;23.50;;;;;;5090494;28;20187;-58
2021/04/29 10:41:47;;;;;;;5.47;1.25;;;21.90;23.40;;;;;;5089020;28;20080;-57
2021/04/29 10:44:19;;;;;;;6.25;0.90;;;21.90;23.10;;;;;;5089665;28;20109;-60
2021/04/29 10:46:48;;;;;;;4.65;1.10;;;22.00;23.00;;;;;;5090282;28;20104;-61
2021/04/29 10:49:16;;;;;;;6.07;0.90;;;22.00;22.60;;;;;;5091014;28;20150;-60
2021/04/29 10:51:46;;;;;;;5.22;1.00;;;22.10;31.50;;;;;;5091447;28;20175;-58
2021/04/29 10:54:23;;;;;;;4.45;1.00;;;22.00;22.30;;;;;;5078026;28;20068;-57
2021/04/29 10:57:10;;;;;;;4.25;0.90;;;22.00;22.20;;;;;;5092146;28;20075;-59
2021/04/29 10:59:38;;;;;;;7.43;0.88;;;22.00;22.70;;;;;;5091837;28;20214;-60
2021/04/29 11:02:04;;;;;;;3.97;0.80;;;22.50;38.10;;;;;;5096658;28;20081;-60
2021/04/29 11:04:40;;;;;;;8.65;1.42;;;22.30;29.50;;;;;;5101398;28;20096;-59
2021/04/29 11:07:11;;;;;;;8.43;1.17;;;22.10;22.40;;;;;;5090664;28;20072;-60
2021/04/29 11:09:39;;;;;;;3.42;1.00;;;22.00;22.30;;;;;;5092196;28;20101;-58
2021/04/29 11:12:08;;;;;;;6.88;1.00;;;22.10;22.30;;;;;;5093169;28;20181;-61
2021/04/29 11:14:40;;;;;;;6.10;0.80;;;22.10;22.10;;;;;;5093058;28;20073;-59
2021/04/29 11:17:06;;;;;;;9.68;1.02;;;22.20;22.00;;;;;;5089529;28;20076;-59
2021/04/29 11:19:48;;;;;;;5.10;0.88;;;22.30;21.50;;;;;;5091650;28;20102;-60
2021/04/29 11:22:27;;;;;;;5.78;0.77;;;22.30;21.20;;;;;;5090260;28;20551;-59
2021/04/29 11:24:54;;;;;;;4.38;1.20;;;22.30;21.20;;;;;;5089098;28;20137;-59
2021/04/29 11:27:41;;;;;;;2.38;0.80;;;22.40;20.90;;;;;;5088614;28;20076;-59
2021/04/29 11:30:16;;;;;;;8.83;1.00;;;22.40;20.90;;;;;;5090133;28;20064;-60
2021/04/29 11:33:07;;;;;;;4.03;1.08;;;22.30;20.20;;;;;;5088859;28;20099;-61
2021/04/29 11:35:37;;;;;;;6.93;1.15;;;22.40;20.60;;;;;;5074509;28;20115;-59
2021/04/29 11:38:07;;;;;;;5.82;0.85;;;22.40;20.50;;;;;;5087813;28;20072;-57
2021/04/29 11:40:35;;;;;;;11.15;1.02;;;22.40;20.70;;;;;;5091623;28;21368;-59
2021/04/29 11:43:04;;;;;;;3.63;0.90;;;22.40;20.70;;;;;;5094408;28;20099;-57
2021/04/29 11:45:37;;;;;;;3.05;0.80;;;22.30;20.40;;;;;;5093202;28;20072;-57
2021/04/29 11:48:10;;;;;;;4.45;0.77;;;22.40;27.30;;;;;;5093189;28;20145;-58
2021/04/29 11:50:44;;;;;;;4.60;0.88;;;22.20;20.40;;;;;;5075422;28;20080;-57
2021/04/29 11:53:17;;;;;;;7.68;1.05;;;22.10;20.70;;;;;;5094122;28;20187;-57
2021/04/29 11:55:48;;;;;;;5.85;1.00;;;22.20;55.10;;;;;;5094153;28;20147;-58
2021/04/29 11:58:19;;;;;;;8.25;0.73;;;22.10;46.00;;;;;;5094051;28;20149;-59
2021/04/29 12:00:49;;;;;;;5.38;1.10;;;22.00;43.10;;;;;;5090899;28;20423;-59
2021/04/29 12:03:16;;;;;;;6.50;1.02;;;21.90;21.10;;;;;;5091333;28;20085;-58
2021/04/29 12:05:46;;;;;;;4.38;0.90;;;21.90;22.20;;;;;;5092271;28;20072;-60
2021/04/29 12:08:24;;;;;;;9.77;1.05;;;21.80;21.60;;;;;;5096474;28;20069;-59
2021/04/29 12:10:59;;;;;;;10.15;1.10;;;21.80;22.00;;;;;;5096016;28;20072;-59
2021/04/29 12:13:43;;;;;;;7.78;1.10;;;21.70;22.10;;;;;;5096184;28;20109;-59
2021/04/29 12:16:11;;;;;;;4.57;0.90;;;21.60;22.00;;;;;;5091154;28;20124;-61
2021/04/29 12:18:43;;;;;;;4.90;0.90;;;21.40;29.80;;;;;;5078444;28;20069;-60
2021/04/29 12:21:10;;;;;;;5.32;1.05;;;21.40;29.10;;;;;;5089878;28;20152;-60
2021/04/29 12:23:36;;;;;;;4.72;1.08;;;21.40;22.50;;;;;;5095128;28;20081;-61
2021/04/29 12:26:05;;;;;;;3.55;1.02;;;21.30;22.30;;;;;;5094291;28;20100;-59
2021/04/29 12:28:41;;;;;;;7.57;1.13;;;21.30;26.90;;;;;;5092185;28;20069;-59
2021/04/29 12:31:15;;;;;;;4.80;0.75;;;20.70;28.00;;;;;;5094255;28;20171;-59
2021/04/29 12:33:55;;;;;;;7.07;0.80;;;21.30;23.00;;;;;;5095288;28;20089;-59
2021/04/29 12:36:23;;;;;;;1.92;0.70;;;21.50;23.50;;;;;;5094246;28;20125;-59
2021/04/29 12:38:50;;;;;;;2.90;0.77;;;21.00;23.40;;;;;;5076905;28;20163;-59
2021/04/29 12:41:17;;;;;;;6.35;0.85;;;21.10;24.30;;;;;;5095428;28;20077;-60
2021/04/29 12:44:03;;;;;;;6.05;0.90;;;21.10;24.00;;;;;;5093808;28;20163;-60
2021/04/29 12:46:38;;;;;;;12.77;1.50;;;20.90;23.80;;;;;;5074752;28;20113;-60
2021/04/29 12:49:15;;;;;;;4.20;1.00;;;20.80;24.00;;;;;;5093084;28;20404;-59